Historique des stations

Station météo de Ménétréols-sous-Vatan

Altitude de la station : 192 m







Données météorologiques pour le 21/10/2021
Date
Heure
Températures Humidité Point de rosée Vitesse
du vent
Direction Rafales Windchill Pression Pluviométrie
Cumul
Date
Heure
Températures Humidité Point de rosée Vitesse
du vent
Direction Rafales Windchill Pression Pluviométrie
Cumul
21/10/2021 13:4415.4 °C66 %8.9 °C24 km/hNE74 km/h12.8 1016 hPa-
21/10/2021 13:2915.2 °C69 %9.4 °C26 km/hE74 km/h11.7 1016 hPa-
21/10/2021 13:1414.8 °C70 %9.4 °C35 km/hNE74 km/h10.6 1016 hPa-
21/10/2021 12:5914.4 °C72 %9.4 °C29 km/hENE74 km/h10.6 1016 hPa-
21/10/2021 12:4414.2 °C73 %9.4 °C35 km/hNE74 km/h10.0 1016 hPa-
21/10/2021 12:2914.3 °C74 %9.4 °C24 km/hENE74 km/h11.7 1016 hPa-
21/10/2021 12:1514.2 °C74 %9.4 °C27 km/hENE74 km/h11.1 1016 hPa-
21/10/2021 12:0014.0 °C75 %9.4 °C26 km/hENE74 km/h10.6 1016 hPa-
21/10/2021 11:4513.4 °C78 %9.4 °C26 km/hENE74 km/h10.0 1016 hPa-
21/10/2021 11:2913.3 °C80 %10.0 °C39 km/hENE74 km/h8.9 1016 hPa-
21/10/2021 11:1412.8 °C82 %10.0 °C24 km/hENE74 km/h9.4 1016 hPa-
21/10/2021 10:5912.3 °C84 %10.0 °C23 km/hENE74 km/h8.9 1016 hPa-
21/10/2021 10:4412.1 °C85 %9.4 °C31 km/hENE74 km/h7.8 1016 hPa-
21/10/2021 10:2911.7 °C87 %9.4 °C23 km/hENE74 km/h8.3 1016 hPa-
21/10/2021 10:1411.4 °C89 %9.4 °C21 km/hNE74 km/h8.3 1016 hPa-
21/10/2021 09:5910.9 °C90 %9.4 °C18 km/hENE74 km/h8.3 1016 hPa-
21/10/2021 09:4410.6 °C90 %8.9 °C23 km/hENE74 km/h7.2 1016 hPa-
21/10/2021 09:2910.2 °C91 %8.9 °C18 km/hENE74 km/h7.2 1016 hPa-
21/10/2021 09:149.8 °C92 %8.3 °C16 km/hENE74 km/h7.2 1015 hPa-
21/10/2021 08:599.6 °C91 %8.3 °C11 km/hENE74 km/h7.8 1015 hPa-
21/10/2021 08:449.6 °C91 %8.3 °C8 km/hENE74 km/h8.3 1015 hPa-
21/10/2021 08:299.6 °C90 %8.3 °C11 km/hENE74 km/h7.8 1015 hPa-
21/10/2021 08:149.6 °C89 %7.8 °C13 km/hENE74 km/h7.2 1015 hPa-
21/10/2021 07:599.7 °C88 %7.8 °C11 km/hENE74 km/h7.8 1014 hPa-
21/10/2021 07:449.8 °C87 %7.8 °C14 km/hENE74 km/h7.8 1014 hPa-
21/10/2021 07:2910.1 °C86 %7.8 °C14 km/hENE74 km/h7.8 1014 hPa-
21/10/2021 07:1410.1 °C87 %7.8 °C16 km/hENE74 km/h7.2 1014 hPa-
21/10/2021 06:5910.2 °C87 %8.3 °C21 km/hNE74 km/h6.7 1014 hPa-
21/10/2021 06:4410.4 °C85 %8.3 °C21 km/hENE74 km/h7.2 1014 hPa-
21/10/2021 06:2910.7 °C84 %8.3 °C21 km/hENE74 km/h7.2 1013 hPa-
21/10/2021 06:1411.0 °C84 %8.3 °C27 km/hENE74 km/h7.2 1013 hPa-
21/10/2021 06:0011.1 °C84 %8.3 °C26 km/hENE74 km/h7.2 1013 hPa-
21/10/2021 05:4511.1 °C85 %8.9 °C19 km/hENE74 km/h8.3 1013 hPa-
21/10/2021 05:3011.1 °C86 %8.9 °C23 km/hE74 km/h7.8 1012 hPa-
21/10/2021 05:1411.2 °C83 %8.3 °C24 km/hE74 km/h7.2 1012 hPa-
21/10/2021 04:5911.3 °C82 %8.3 °C35 km/hENE74 km/h6.7 1012 hPa-
21/10/2021 04:4411.4 °C82 %8.3 °C26 km/hE74 km/h7.8 1011 hPa-
21/10/2021 04:2911.4 °C83 %8.9 °C23 km/hENE74 km/h8.3 1011 hPa-
21/10/2021 04:1411.8 °C81 %8.9 °C23 km/hE74 km/h8.3 1011 hPa-
21/10/2021 03:5912.1 °C80 %8.9 °C27 km/hENE74 km/h8.3 1011 hPa-
21/10/2021 03:4412.5 °C79 %8.9 °C29 km/hE74 km/h8.9 1010 hPa-
21/10/2021 03:2912.8 °C78 %8.9 °C31 km/hE74 km/h8.3 1010 hPa-
21/10/2021 03:1413.1 °C77 %8.9 °C31 km/hE74 km/h9.4 1010 hPa-
21/10/2021 02:5913.2 °C75 %8.9 °C56 km/hENE74 km/h7.8 1009 hPa-
21/10/2021 02:4413.2 °C75 %8.9 °C42 km/hE74 km/h8.9 1009 hPa-
21/10/2021 02:3013.3 °C74 %8.9 °C56 km/hENE74 km/h7.8 1008 hPa-
21/10/2021 02:1513.2 °C74 %8.9 °C66 km/hENE72 km/h7.8 1008 hPa-
21/10/2021 02:0013.1 °C75 %8.9 °C51 km/hENE72 km/h8.3 1007 hPa-
21/10/2021 01:4512.9 °C75 %8.9 °C60 km/hENE72 km/h7.2 1007 hPa-
21/10/2021 01:3012.8 °C78 %8.9 °C43 km/hENE71 km/h7.8 1007 hPa-
21/10/2021 01:0913.0 °C80 %9.4 °C32 km/hNE71 km/h8.3 1007 hPa-
21/10/2021 00:5913.2 °C79 %9.4 °C48 km/hENE71 km/h8.3 1007 hPa-
21/10/2021 00:4413.4 °C78 %9.4 °C48 km/hENE71 km/h8.3 1007 hPa-
21/10/2021 00:3013.4 °C79 %10.0 °C35 km/hNE71 km/h8.9 1006 hPa-
21/10/2021 00:1113.3 °C84 %10.6 °C48 km/hENE71 km/h8.3 1007 hPa-


Minima :

Température : 9.6 °C
Humidité : 66 %
Point de rosée : 7.8 °C
Vent moyen : 8 km/h
Windchill : 6.7
Pression atm. : 1006 hPa
Maxima :

Température : 15.4 °C
Humidité : 92 %
Point de rosée : 10.6 °C
Vent moyen : 66 km/h
Windchill : 12.8
Pression atm. : 1016 hPa
Rafales max : 74 km/h
Cumul de pluie sur 24H : 0 mm

Ménétréols-sous-Vatan est une commune du département Indre (36).
La station météorologique du réseau de l'association la plus proche de Ménétréols-sous-Vatan est celle de Luçay-le-Libre



Icône Facebook Association Météo Centre Icône Twitter Association Météo Centre Icône Chaîne Youtube Association Météo Centre Icône contact Association Météo Centre Icône Insta Association Météo Centre